sensor_id;sensor_type;location;lat;lon;timestamp;pressure;altitude;pressure_sealevel;temperature;humidity
20628;BME280;10473;42.734;24.258;2022-10-23T00:00:38;92299.19;;;13.29;61.52
20628;BME280;10473;42.734;24.258;2022-10-23T00:03:06;92293.50;;;12.80;63.34
20628;BME280;10473;42.734;24.258;2022-10-23T00:05:38;92306.19;;;12.97;62.81
20628;BME280;10473;42.734;24.258;2022-10-23T00:08:06;92303.22;;;13.05;61.78
20628;BME280;10473;42.734;24.258;2022-10-23T00:10:40;92308.91;;;13.07;62.95
20628;BME280;10473;42.734;24.258;2022-10-23T00:13:08;92307.28;;;12.96;62.77
20628;BME280;10473;42.734;24.258;2022-10-23T00:15:36;92319.41;;;12.93;63.14
20628;BME280;10473;42.734;24.258;2022-10-23T00:18:04;92309.56;;;12.94;63.06
20628;BME280;10473;42.734;24.258;2022-10-23T00:20:32;92310.31;;;12.94;63.03
20628;BME280;10473;42.734;24.258;2022-10-23T00:22:59;92304.63;;;12.96;62.83
20628;BME280;10473;42.734;24.258;2022-10-23T00:25:27;92309.53;;;12.90;63.23
20628;BME280;10473;42.734;24.258;2022-10-23T00:27:56;92312.66;;;12.99;63.20
20628;BME280;10473;42.734;24.258;2022-10-23T00:30:24;92311.16;;;13.02;62.63
20628;BME280;10473;42.734;24.258;2022-10-23T00:32:52;92301.16;;;12.92;62.56
20628;BME280;10473;42.734;24.258;2022-10-23T00:35:19;92298.47;;;12.85;62.43
20628;BME280;10473;42.734;24.258;2022-10-23T00:37:47;92298.72;;;12.73;63.10
20628;BME280;10473;42.734;24.258;2022-10-23T00:40:15;92307.22;;;12.85;62.77
20628;BME280;10473;42.734;24.258;2022-10-23T00:42:43;92268.28;;;12.60;62.60
20628;BME280;10473;42.734;24.258;2022-10-23T00:45:20;92303.63;;;12.64;63.86
20628;BME280;10473;42.734;24.258;2022-10-23T00:47:48;92306.72;;;12.73;63.69
20628;BME280;10473;42.734;24.258;2022-10-23T00:50:16;92294.16;;;12.70;63.10
20628;BME280;10473;42.734;24.258;2022-10-23T00:52:47;92306.31;;;12.71;63.29
20628;BME280;10473;42.734;24.258;2022-10-23T00:55:16;92303.22;;;12.62;63.97
20628;BME280;10473;42.734;24.258;2022-10-23T00:57:45;92300.22;;;12.70;63.90
20628;BME280;10473;42.734;24.258;2022-10-23T01:00:18;92295.50;;;12.46;64.87
20628;BME280;10473;42.734;24.258;2022-10-23T01:02:46;92298.91;;;12.47;64.49
20628;BME280;10473;42.734;24.258;2022-10-23T01:05:14;92303.16;;;12.55;64.28
20628;BME280;10473;42.734;24.258;2022-10-23T01:07:48;92299.38;;;12.56;63.98
20628;BME280;10473;42.734;24.258;2022-10-23T01:10:23;92294.66;;;12.39;64.69
20628;BME280;10473;42.734;24.258;2022-10-23T01:12:59;92308.81;;;12.50;64.08
20628;BME280;10473;42.734;24.258;2022-10-23T01:15:36;92312.22;;;12.50;64.18
20628;BME280;10473;42.734;24.258;2022-10-23T01:18:07;92305.97;;;12.29;65.19
20628;BME280;10473;42.734;24.258;2022-10-23T01:20:47;92307.53;;;12.37;65.23
20628;BME280;10473;42.734;24.258;2022-10-23T01:23:40;92320.03;;;12.33;65.21
20628;BME280;10473;42.734;24.258;2022-10-23T01:26:29;92322.00;;;12.39;64.17
20628;BME280;10473;42.734;24.258;2022-10-23T01:29:07;92310.38;;;12.18;65.21
20628;BME280;10473;42.734;24.258;2022-10-23T01:31:42;92297.19;;;12.25;65.02
20628;BME280;10473;42.734;24.258;2022-10-23T01:34:13;92306.06;;;12.43;65.01
20628;BME280;10473;42.734;24.258;2022-10-23T01:36:46;92317.88;;;12.45;64.47
20628;BME280;10473;42.734;24.258;2022-10-23T01:39:17;92321.28;;;12.46;64.62
20628;BME280;10473;42.734;24.258;2022-10-23T01:41:50;92314.50;;;12.48;64.64
20628;BME280;10473;42.734;24.258;2022-10-23T01:44:29;92329.78;;;12.62;64.59
20628;BME280;10473;42.734;24.258;2022-10-23T01:47:01;92319.50;;;12.57;64.16
20628;BME280;10473;42.734;24.258;2022-10-23T01:49:33;92322.25;;;12.67;64.15
20628;BME280;10473;42.734;24.258;2022-10-23T01:52:06;92315.34;;;12.59;64.08
20628;BME280;10473;42.734;24.258;2022-10-23T01:54:38;92329.06;;;12.65;64.00
20628;BME280;10473;42.734;24.258;2022-10-23T01:57:09;92326.09;;;12.73;63.61
20628;BME280;10473;42.734;24.258;2022-10-23T01:59:43;92338.94;;;12.68;64.06
20628;BME280;10473;42.734;24.258;2022-10-23T02:02:12;92329.53;;;12.74;63.95
20628;BME280;10473;42.734;24.258;2022-10-23T02:04:49;92326.88;;;12.74;64.62
20628;BME280;10473;42.734;24.258;2022-10-23T02:07:21;92336.28;;;12.68;64.81
20628;BME280;10473;42.734;24.258;2022-10-23T02:09:49;92316.47;;;12.58;64.98
20628;BME280;10473;42.734;24.258;2022-10-23T02:12:26;92328.94;;;12.51;64.86
20628;BME280;10473;42.734;24.258;2022-10-23T02:15:01;92330.41;;;12.45;65.28
20628;BME280;10473;42.734;24.258;2022-10-23T02:17:42;92330.81;;;12.50;65.62
20628;BME280;10473;42.734;24.258;2022-10-23T02:20:18;92338.09;;;12.57;64.99
20628;BME280;10473;42.734;24.258;2022-10-23T02:22:54;92332.78;;;12.57;64.88
20628;BME280;10473;42.734;24.258;2022-10-23T02:25:29;92329.72;;;12.51;65.57
20628;BME280;10473;42.734;24.258;2022-10-23T02:28:02;92344.59;;;12.63;65.24
20628;BME280;10473;42.734;24.258;2022-10-23T02:30:44;92341.94;;;12.63;65.03
20628;BME280;10473;42.734;24.258;2022-10-23T02:33:15;92342.38;;;12.65;64.31
20628;BME280;10473;42.734;24.258;2022-10-23T02:35:44;92341.66;;;12.71;64.75
20628;BME280;10473;42.734;24.258;2022-10-23T02:38:33;92342.06;;;12.73;64.26
20628;BME280;10473;42.734;24.258;2022-10-23T02:41:21;92339.72;;;12.65;64.57
20628;BME280;10473;42.734;24.258;2022-10-23T02:44:01;92341.28;;;12.73;63.75
20628;BME280;10473;42.734;24.258;2022-10-23T02:46:39;92358.44;;;12.79;63.44
20628;BME280;10473;42.734;24.258;2022-10-23T02:49:14;92355.03;;;12.82;63.20
20628;BME280;10473;42.734;24.258;2022-10-23T02:51:53;92359.44;;;12.64;64.54
20628;BME280;10473;42.734;24.258;2022-10-23T02:54:35;92360.28;;;12.71;63.79
20628;BME280;10473;42.734;24.258;2022-10-23T02:57:13;92354.84;;;12.61;64.18
20628;BME280;10473;42.734;24.258;2022-10-23T02:59:46;92348.00;;;12.60;63.78
20628;BME280;10473;42.734;24.258;2022-10-23T03:02:22;92354.19;;;12.71;63.86
20628;BME280;10473;42.734;24.258;2022-10-23T03:04:53;92353.03;;;12.68;64.35
20628;BME280;10473;42.734;24.258;2022-10-23T03:07:24;92354.22;;;12.78;63.95
20628;BME280;10473;42.734;24.258;2022-10-23T03:09:58;92358.09;;;12.84;63.15
20628;BME280;10473;42.734;24.258;2022-10-23T03:12:26;92349.00;;;12.85;63.21
20628;BME280;10473;42.734;24.258;2022-10-23T03:14:54;92362.59;;;12.76;63.48
20628;BME280;10473;42.734;24.258;2022-10-23T03:17:23;92360.41;;;12.85;63.35
20628;BME280;10473;42.734;24.258;2022-10-23T03:19:55;92366.63;;;12.60;64.14
20628;BME280;10473;42.734;24.258;2022-10-23T03:22:22;92370.13;;;12.71;63.58
20628;BME280;10473;42.734;24.258;2022-10-23T03:24:50;92373.94;;;12.70;63.14
20628;BME280;10473;42.734;24.258;2022-10-23T03:27:18;92391.78;;;12.73;63.80
20628;BME280;10473;42.734;24.258;2022-10-23T03:29:46;92378.06;;;12.64;63.63
20628;BME280;10473;42.734;24.258;2022-10-23T03:32:15;92380.78;;;12.71;63.00
20628;BME280;10473;42.734;24.258;2022-10-23T03:34:46;92376.25;;;12.75;63.29
20628;BME280;10473;42.734;24.258;2022-10-23T03:37:14;92380.06;;;12.74;63.33
20628;BME280;10473;42.734;24.258;2022-10-23T03:39:42;92376.25;;;12.75;62.71
20628;BME280;10473;42.734;24.258;2022-10-23T03:42:10;92377.31;;;12.67;63.18
20628;BME280;10473;42.734;24.258;2022-10-23T03:44:38;92371.53;;;12.58;63.99
20628;BME280;10473;42.734;24.258;2022-10-23T03:47:09;92368.13;;;12.57;63.02
20628;BME280;10473;42.734;24.258;2022-10-23T03:49:42;92337.13;;;12.35;63.51
20628;BME280;10473;42.734;24.258;2022-10-23T03:52:12;92374.50;;;12.53;63.29
20628;BME280;10473;42.734;24.258;2022-10-23T03:54:41;92389.69;;;12.49;63.66
20628;BME280;10473;42.734;24.258;2022-10-23T03:57:10;92373.72;;;12.49;63.11
20628;BME280;10473;42.734;24.258;2022-10-23T03:59:39;92374.38;;;12.39;64.35
20628;BME280;10473;42.734;24.258;2022-10-23T04:02:08;92380.91;;;12.45;63.61
20628;BME280;10473;42.734;24.258;2022-10-23T04:04:37;92379.72;;;12.42;63.60
20628;BME280;10473;42.734;24.258;2022-10-23T04:07:04;92382.75;;;12.41;63.41
20628;BME280;10473;42.734;24.258;2022-10-23T04:09:33;92384.53;;;12.30;63.84
20628;BME280;10473;42.734;24.258;2022-10-23T04:12:03;92395.56;;;12.32;63.95
20628;BME280;10473;42.734;24.258;2022-10-23T04:14:32;92383.34;;;12.24;63.72
20628;BME280;10473;42.734;24.258;2022-10-23T04:17:00;92394.34;;;12.26;64.26
20628;BME280;10473;42.734;24.258;2022-10-23T04:19:32;92397.47;;;12.31;63.51
20628;BME280;10473;42.734;24.258;2022-10-23T04:22:03;92398.50;;;12.23;64.44
20628;BME280;10473;42.734;24.258;2022-10-23T04:24:34;92403.13;;;12.30;63.82
20628;BME280;10473;42.734;24.258;2022-10-23T04:27:02;92408.03;;;12.28;62.92
20628;BME280;10473;42.734;24.258;2022-10-23T04:29:30;92393.69;;;12.03;63.99
20628;BME280;10473;42.734;24.258;2022-10-23T04:31:58;92418.97;;;12.23;63.18
20628;BME280;10473;42.734;24.258;2022-10-23T04:34:26;92410.16;;;12.15;63.70
20628;BME280;10473;42.734;24.258;2022-10-23T04:36:55;92416.63;;;12.18;63.66
20628;BME280;10473;42.734;24.258;2022-10-23T04:39:23;92411.31;;;12.18;63.97
20628;BME280;10473;42.734;24.258;2022-10-23T04:41:52;92415.13;;;12.17;63.57
20628;BME280;10473;42.734;24.258;2022-10-23T04:44:21;92420.38;;;12.13;64.55
20628;BME280;10473;42.734;24.258;2022-10-23T04:46:50;92405.59;;;12.12;63.59
20628;BME280;10473;42.734;24.258;2022-10-23T04:49:23;92397.16;;;12.07;64.21
20628;BME280;10473;42.734;24.258;2022-10-23T04:52:17;92401.78;;;12.13;63.42
20628;BME280;10473;42.734;24.258;2022-10-23T04:55:00;92401.97;;;11.98;64.53
20628;BME280;10473;42.734;24.258;2022-10-23T04:57:51;92409.59;;;11.99;64.57
20628;BME280;10473;42.734;24.258;2022-10-23T05:00:23;92395.22;;;12.04;63.65
20628;BME280;10473;42.734;24.258;2022-10-23T05:02:53;92405.06;;;12.00;64.59
20628;BME280;10473;42.734;24.258;2022-10-23T05:05:22;92412.78;;;12.12;63.30
20628;BME280;10473;42.734;24.258;2022-10-23T05:08:12;92425.66;;;12.10;64.05
20628;BME280;10473;42.734;24.258;2022-10-23T05:11:08;92415.13;;;12.17;64.21
20628;BME280;10473;42.734;24.258;2022-10-23T05:13:44;92414.63;;;12.41;63.07
20628;BME280;10473;42.734;24.258;2022-10-23T05:16:24;92395.69;;;12.42;62.94
20628;BME280;10473;42.734;24.258;2022-10-23T05:18:55;92406.25;;;12.75;61.15
20628;BME280;10473;42.734;24.258;2022-10-23T05:21:28;92420.59;;;13.00;61.03
20628;BME280;10473;42.734;24.258;2022-10-23T05:23:59;92429.91;;;13.24;60.25
20628;BME280;10473;42.734;24.258;2022-10-23T05:26:27;92441.97;;;13.54;59.20
20628;BME280;10473;42.734;24.258;2022-10-23T05:28:58;92434.91;;;13.79;57.96
20628;BME280;10473;42.734;24.258;2022-10-23T05:31:33;92444.91;;;14.00;58.14
20628;BME280;10473;42.734;24.258;2022-10-23T05:34:12;92440.16;;;13.72;57.73
20628;BME280;10473;42.734;24.258;2022-10-23T05:36:44;92442.06;;;14.33;58.04
20628;BME280;10473;42.734;24.258;2022-10-23T05:39:15;92438.59;;;14.22;58.03
20628;BME280;10473;42.734;24.258;2022-10-23T05:41:45;92441.09;;;14.76;57.28
20628;BME280;10473;42.734;24.258;2022-10-23T05:44:27;92441.53;;;15.09;56.66
20628;BME280;10473;42.734;24.258;2022-10-23T05:47:13;92465.94;;;15.08;55.71
20628;BME280;10473;42.734;24.258;2022-10-23T05:49:44;92461.69;;;14.86;57.44
20628;BME280;10473;42.734;24.258;2022-10-23T05:52:33;92454.94;;;15.41;59.42
20628;BME280;10473;42.734;24.258;2022-10-23T05:55:10;92468.28;;;15.83;55.07
20628;BME280;10473;42.734;24.258;2022-10-23T05:57:55;92472.06;;;16.27;56.76
20628;BME280;10473;42.734;24.258;2022-10-23T06:00:47;92472.72;;;16.70;54.84
20628;BME280;10473;42.734;24.258;2022-10-23T06:03:35;92471.59;;;16.57;49.78
20628;BME280;10473;42.734;24.258;2022-10-23T06:06:07;92467.25;;;16.98;50.20
20628;BME280;10473;42.734;24.258;2022-10-23T06:08:45;92473.53;;;17.39;51.77
20628;BME280;10473;42.734;24.258;2022-10-23T06:11:14;92477.75;;;17.40;48.77
20628;BME280;10473;42.734;24.258;2022-10-23T06:13:49;92485.22;;;17.69;47.79
20628;BME280;10473;42.734;24.258;2022-10-23T06:16:22;92488.81;;;18.00;48.17
20628;BME280;10473;42.734;24.258;2022-10-23T06:18:53;92492.22;;;18.44;48.71
20628;BME280;10473;42.734;24.258;2022-10-23T06:21:23;92488.66;;;18.91;47.08
20628;BME280;10473;42.734;24.258;2022-10-23T06:23:52;92493.72;;;19.16;44.59
20628;BME280;10473;42.734;24.258;2022-10-23T06:26:25;92481.94;;;18.76;45.93
20628;BME280;10473;42.734;24.258;2022-10-23T06:29:05;92505.56;;;18.88;44.15
20628;BME280;10473;42.734;24.258;2022-10-23T06:31:34;92511.13;;;18.71;45.45
20628;BME280;10473;42.734;24.258;2022-10-23T06:34:03;92499.75;;;19.27;45.59
20628;BME280;10473;42.734;24.258;2022-10-23T06:36:32;92491.22;;;19.32;43.82
20628;BME280;10473;42.734;24.258;2022-10-23T06:39:19;92506.63;;;19.58;44.18
20628;BME280;10473;42.734;24.258;2022-10-23T06:42:07;92503.38;;;18.80;43.23
20628;BME280;10473;42.734;24.258;2022-10-23T06:44:52;92520.25;;;19.44;44.28
20628;BME280;10473;42.734;24.258;2022-10-23T06:47:42;92518.91;;;20.12;42.34
20628;BME280;10473;42.734;24.258;2022-10-23T06:50:28;92511.38;;;20.46;41.85
20628;BME280;10473;42.734;24.258;2022-10-23T06:52:59;92511.47;;;19.93;43.69
20628;BME280;10473;42.734;24.258;2022-10-23T06:55:28;92511.06;;;20.44;41.87
20628;BME280;10473;42.734;24.258;2022-10-23T06:57:56;92495.50;;;20.74;41.91
20628;BME280;10473;42.734;24.258;2022-10-23T07:00:24;92501.13;;;20.83;41.66
20628;BME280;10473;42.734;24.258;2022-10-23T07:02:54;92514.69;;;20.99;42.38
20628;BME280;10473;42.734;24.258;2022-10-23T07:05:22;92526.78;;;21.11;42.89
20628;BME280;10473;42.734;24.258;2022-10-23T07:07:50;92511.88;;;19.38;43.61
20628;BME280;10473;42.734;24.258;2022-10-23T07:10:24;92526.44;;;18.74;46.03
20628;BME280;10473;42.734;24.258;2022-10-23T07:12:57;92533.19;;;19.52;46.39
20628;BME280;10473;42.734;24.258;2022-10-23T07:15:55;92536.16;;;20.14;44.20
20628;BME280;10473;42.734;24.258;2022-10-23T07:18:26;92529.88;;;19.08;45.98
20628;BME280;10473;42.734;24.258;2022-10-23T07:21:12;92542.28;;;19.88;46.17
20628;BME280;10473;42.734;24.258;2022-10-23T07:23:42;92545.47;;;20.56;43.75
20628;BME280;10473;42.734;24.258;2022-10-23T07:26:12;92554.84;;;20.71;44.09
20628;BME280;10473;42.734;24.258;2022-10-23T07:28:41;92546.41;;;21.31;41.02
20628;BME280;10473;42.734;24.258;2022-10-23T07:31:09;92540.44;;;20.58;42.18
20628;BME280;10473;42.734;24.258;2022-10-23T07:33:57;92545.66;;;21.11;41.94
20628;BME280;10473;42.734;24.258;2022-10-23T07:36:25;92538.09;;;21.96;40.39
20628;BME280;10473;42.734;24.258;2022-10-23T07:38:53;92547.69;;;22.49;39.84
20628;BME280;10473;42.734;24.258;2022-10-23T07:41:21;92544.94;;;22.33;39.94
20628;BME280;10473;42.734;24.258;2022-10-23T07:43:48;92551.63;;;23.21;40.66
20628;BME280;10473;42.734;24.258;2022-10-23T07:46:16;92556.19;;;23.65;36.63
20628;BME280;10473;42.734;24.258;2022-10-23T07:48:45;92544.28;;;23.75;37.64
20628;BME280;10473;42.734;24.258;2022-10-23T07:51:16;92554.19;;;24.31;38.73
20628;BME280;10473;42.734;24.258;2022-10-23T07:53:53;92544.22;;;24.53;36.21
20628;BME280;10473;42.734;24.258;2022-10-23T07:56:49;92530.13;;;23.71;37.51
20628;BME280;10473;42.734;24.258;2022-10-23T07:59:20;92529.56;;;23.22;38.10
20628;BME280;10473;42.734;24.258;2022-10-23T08:01:51;92538.97;;;23.02;38.99
20628;BME280;10473;42.734;24.258;2022-10-23T08:04:22;92525.53;;;22.98;39.75
20628;BME280;10473;42.734;24.258;2022-10-23T08:06:58;92553.34;;;23.56;38.70
20628;BME280;10473;42.734;24.258;2022-10-23T08:09:29;92524.31;;;23.44;38.17
20628;BME280;10473;42.734;24.258;2022-10-23T08:11:57;92516.78;;;23.64;38.70
20628;BME280;10473;42.734;24.258;2022-10-23T08:14:26;92533.06;;;23.89;38.78
20628;BME280;10473;42.734;24.258;2022-10-23T08:16:55;92547.50;;;24.11;38.17
20628;BME280;10473;42.734;24.258;2022-10-23T08:19:42;92534.59;;;24.40;37.67
20628;BME280;10473;42.734;24.258;2022-10-23T08:22:13;92529.72;;;24.47;37.68
20628;BME280;10473;42.734;24.258;2022-10-23T08:24:41;92541.91;;;25.11;36.78
20628;BME280;10473;42.734;24.258;2022-10-23T08:27:09;92548.72;;;25.28;36.56
20628;BME280;10473;42.734;24.258;2022-10-23T08:29:42;92544.28;;;25.43;37.44
20628;BME280;10473;42.734;24.258;2022-10-23T08:32:10;92554.34;;;25.55;34.67
20628;BME280;10473;42.734;24.258;2022-10-23T08:34:47;92542.91;;;26.03;34.72
20628;BME280;10473;42.734;24.258;2022-10-23T08:37:17;92560.66;;;25.95;34.36
20628;BME280;10473;42.734;24.258;2022-10-23T08:39:45;92550.66;;;26.23;34.31
20628;BME280;10473;42.734;24.258;2022-10-23T08:42:21;92537.13;;;26.80;33.81
20628;BME280;10473;42.734;24.258;2022-10-23T08:44:57;92536.72;;;27.18;32.68
20628;BME280;10473;42.734;24.258;2022-10-23T08:47:33;92539.00;;;27.37;33.25
20628;BME280;10473;42.734;24.258;2022-10-23T08:50:40;92554.41;;;27.76;31.19
20628;BME280;10473;42.734;24.258;2022-10-23T08:53:15;92547.75;;;27.86;30.84
20628;BME280;10473;42.734;24.258;2022-10-23T08:55:48;92554.69;;;28.05;29.98
20628;BME280;10473;42.734;24.258;2022-10-23T08:58:24;92558.06;;;28.33;30.05
20628;BME280;10473;42.734;24.258;2022-10-23T09:00:57;92544.56;;;28.38;29.39
20628;BME280;10473;42.734;24.258;2022-10-23T09:03:25;92548.91;;;28.03;29.94
20628;BME280;10473;42.734;24.258;2022-10-23T09:06:01;92550.72;;;28.15;29.80
20628;BME280;10473;42.734;24.258;2022-10-23T09:08:44;92551.69;;;27.85;30.01
20628;BME280;10473;42.734;24.258;2022-10-23T09:11:20;92554.56;;;27.82;30.70
20628;BME280;10473;42.734;24.258;2022-10-23T09:14:11;92557.75;;;28.72;30.19
20628;BME280;10473;42.734;24.258;2022-10-23T09:16:50;92545.84;;;28.93;29.92
20628;BME280;10473;42.734;24.258;2022-10-23T09:19:22;92537.50;;;29.35;28.51
20628;BME280;10473;42.734;24.258;2022-10-23T09:21:53;92544.63;;;29.18;29.15
20628;BME280;10473;42.734;24.258;2022-10-23T09:24:25;92555.06;;;29.43;27.38
20628;BME280;10473;42.734;24.258;2022-10-23T09:26:57;92560.44;;;30.04;28.61
20628;BME280;10473;42.734;24.258;2022-10-23T09:29:27;92557.97;;;30.06;27.10
20628;BME280;10473;42.734;24.258;2022-10-23T09:31:57;92540.16;;;28.73;29.32
20628;BME280;10473;42.734;24.258;2022-10-23T09:34:26;92548.19;;;29.85;27.49
20628;BME280;10473;42.734;24.258;2022-10-23T09:36:56;92548.81;;;29.04;28.02
20628;BME280;10473;42.734;24.258;2022-10-23T09:39:29;92550.88;;;28.53;29.10
20628;BME280;10473;42.734;24.258;2022-10-23T09:41:58;92551.50;;;29.13;27.62
20628;BME280;10473;42.734;24.258;2022-10-23T09:44:30;92538.41;;;27.33;29.61
20628;BME280;10473;42.734;24.258;2022-10-23T09:46:59;92532.66;;;28.27;29.67
20628;BME280;10473;42.734;24.258;2022-10-23T09:49:28;92541.56;;;29.01;28.55
20628;BME280;10473;42.734;24.258;2022-10-23T09:52:01;92542.19;;;28.22;27.75
20628;BME280;10473;42.734;24.258;2022-10-23T09:54:32;92551.56;;;29.04;27.42
20628;BME280;10473;42.734;24.258;2022-10-23T09:57:11;92564.63;;;30.14;26.11
20628;BME280;10473;42.734;24.258;2022-10-23T09:59:42;92567.25;;;30.52;26.75
20628;BME280;10473;42.734;24.258;2022-10-23T10:02:19;92558.91;;;31.70;25.78
20628;BME280;10473;42.734;24.258;2022-10-23T10:05:20;92559.16;;;31.92;24.83
20628;BME280;10473;42.734;24.258;2022-10-23T10:07:54;92563.97;;;32.54;24.62
20628;BME280;10473;42.734;24.258;2022-10-23T10:10:27;92554.91;;;33.10;23.78
20628;BME280;10473;42.734;24.258;2022-10-23T10:13:00;92551.28;;;32.87;24.16
20628;BME280;10473;42.734;24.258;2022-10-23T10:15:31;92544.16;;;34.62;22.83
20628;BME280;10473;42.734;24.258;2022-10-23T10:18:12;92541.25;;;36.07;21.46
20628;BME280;10473;42.734;24.258;2022-10-23T10:20:55;92536.63;;;34.90;21.30
20628;BME280;10473;42.734;24.258;2022-10-23T10:23:31;92535.34;;;34.96;22.04
20628;BME280;10473;42.734;24.258;2022-10-23T10:26:08;92532.81;;;35.88;20.64
20628;BME280;10473;42.734;24.258;2022-10-23T10:28:52;92538.16;;;33.55;21.58
20628;BME280;10473;42.734;24.258;2022-10-23T10:31:32;92534.34;;;34.44;21.67
20628;BME280;10473;42.734;24.258;2022-10-23T10:34:10;92530.84;;;34.27;21.65
20628;BME280;10473;42.734;24.258;2022-10-23T10:36:46;92535.13;;;33.48;24.19
20628;BME280;10473;42.734;24.258;2022-10-23T10:39:28;92541.09;;;34.10;22.79
20628;BME280;10473;42.734;24.258;2022-10-23T10:42:23;92526.38;;;35.69;21.38
20628;BME280;10473;42.734;24.258;2022-10-23T10:45:02;92535.91;;;35.63;21.75
20628;BME280;10473;42.734;24.258;2022-10-23T10:47:43;92529.09;;;34.57;20.63
20628;BME280;10473;42.734;24.258;2022-10-23T10:50:25;92499.69;;;33.08;22.25
20628;BME280;10473;42.734;24.258;2022-10-23T10:53:21;92541.31;;;32.90;22.23
20628;BME280;10473;42.734;24.258;2022-10-23T10:55:53;92547.06;;;34.14;21.84
20628;BME280;10473;42.734;24.258;2022-10-23T10:58:37;92540.63;;;34.45;21.45
20628;BME280;10473;42.734;24.258;2022-10-23T11:01:14;92517.66;;;33.62;21.16
20628;BME280;10473;42.734;24.258;2022-10-23T11:03:47;92513.84;;;33.37;21.42
20628;BME280;10473;42.734;24.258;2022-10-23T11:06:20;92523.13;;;32.30;22.25
20628;BME280;10473;42.734;24.258;2022-10-23T11:08:49;92530.78;;;31.95;22.09
20628;BME280;10473;42.734;24.258;2022-10-23T11:11:20;92526.84;;;31.76;22.82
20628;BME280;10473;42.734;24.258;2022-10-23T11:13:51;92535.25;;;32.18;23.43
20628;BME280;10473;42.734;24.258;2022-10-23T11:16:22;92524.22;;;31.67;22.87
20628;BME280;10473;42.734;24.258;2022-10-23T11:19:00;92521.28;;;32.22;22.69
20628;BME280;10473;42.734;24.258;2022-10-23T11:21:35;92497.31;;;32.17;22.70
20628;BME280;10473;42.734;24.258;2022-10-23T11:24:42;92502.28;;;33.22;22.94
20628;BME280;10473;42.734;24.258;2022-10-23T11:27:29;92490.22;;;33.14;21.61
20628;BME280;10473;42.734;24.258;2022-10-23T11:30:18;92496.19;;;33.66;21.74
20628;BME280;10473;42.734;24.258;2022-10-23T11:33:23;92505.41;;;31.55;23.10
20628;BME280;10473;42.734;24.258;2022-10-23T11:36:04;92488.97;;;32.31;22.84
20628;BME280;10473;42.734;24.258;2022-10-23T11:38:34;92488.09;;;30.34;23.92
20628;BME280;10473;42.734;24.258;2022-10-23T11:41:04;92478.84;;;30.81;23.92
20628;BME280;10473;42.734;24.258;2022-10-23T11:43:34;92475.22;;;31.29;24.26
20628;BME280;10473;42.734;24.258;2022-10-23T11:46:28;92481.66;;;29.88;23.82
20628;BME280;10473;42.734;24.258;2022-10-23T11:48:56;92472.59;;;29.68;23.85
20628;BME280;10473;42.734;24.258;2022-10-23T11:51:29;92474.69;;;29.35;25.43
20628;BME280;10473;42.734;24.258;2022-10-23T11:54:19;92460.25;;;29.05;24.49
20628;BME280;10473;42.734;24.258;2022-10-23T11:56:55;92469.03;;;28.21;25.51
20628;BME280;10473;42.734;24.258;2022-10-23T11:59:31;92465.50;;;27.46;26.48
20628;BME280;10473;42.734;24.258;2022-10-23T12:02:02;92464.28;;;27.38;27.69
20628;BME280;10473;42.734;24.258;2022-10-23T12:04:39;92457.63;;;26.94;27.86
20628;BME280;10473;42.734;24.258;2022-10-23T12:07:16;92458.69;;;26.70;28.02
20628;BME280;10473;42.734;24.258;2022-10-23T12:09:51;92442.44;;;26.30;28.90
20628;BME280;10473;42.734;24.258;2022-10-23T12:12:29;92456.84;;;26.00;29.27
20628;BME280;10473;42.734;24.258;2022-10-23T12:15:15;92454.00;;;25.73;30.08
20628;BME280;10473;42.734;24.258;2022-10-23T12:17:46;92441.84;;;25.56;29.83
20628;BME280;10473;42.734;24.258;2022-10-23T12:20:38;92433.97;;;24.84;30.49
20628;BME280;10473;42.734;24.258;2022-10-23T12:23:35;92450.53;;;24.99;30.67
20628;BME280;10473;42.734;24.258;2022-10-23T12:26:23;92431.03;;;24.57;31.42
20628;BME280;10473;42.734;24.258;2022-10-23T12:28:59;92435.16;;;24.62;32.25
20628;BME280;10473;42.734;24.258;2022-10-23T12:31:38;92436.53;;;24.20;32.19
20628;BME280;10473;42.734;24.258;2022-10-23T12:34:22;92449.47;;;24.16;32.13
20628;BME280;10473;42.734;24.258;2022-10-23T12:37:07;92448.72;;;24.03;32.72
20628;BME280;10473;42.734;24.258;2022-10-23T12:39:38;92438.28;;;23.39;33.33
20628;BME280;10473;42.734;24.258;2022-10-23T12:42:14;92431.06;;;23.86;32.46
20628;BME280;10473;42.734;24.258;2022-10-23T12:44:45;92434.06;;;23.38;32.97
20628;BME280;10473;42.734;24.258;2022-10-23T12:47:15;92437.53;;;23.51;32.32
20628;BME280;10473;42.734;24.258;2022-10-23T12:49:49;92437.09;;;23.40;32.79
20628;BME280;10473;42.734;24.258;2022-10-23T12:52:19;92436.13;;;22.93;32.74
20628;BME280;10473;42.734;24.258;2022-10-23T12:54:47;92445.97;;;22.71;34.44
20628;BME280;10473;42.734;24.258;2022-10-23T12:57:19;92440.19;;;22.85;33.72
20628;BME280;10473;42.734;24.258;2022-10-23T12:59:49;92444.16;;;22.68;34.12
20628;BME280;10473;42.734;24.258;2022-10-23T13:02:22;92433.94;;;22.59;34.52
20628;BME280;10473;42.734;24.258;2022-10-23T13:04:53;92427.88;;;22.55;33.80
20628;BME280;10473;42.734;24.258;2022-10-23T13:07:24;92427.38;;;22.44;34.29
20628;BME280;10473;42.734;24.258;2022-10-23T13:09:56;92431.34;;;22.40;34.91
20628;BME280;10473;42.734;24.258;2022-10-23T13:12:32;92447.22;;;22.22;34.45
20628;BME280;10473;42.734;24.258;2022-10-23T13:15:13;92440.84;;;22.16;34.84
20628;BME280;10473;42.734;24.258;2022-10-23T13:17:42;92431.31;;;21.44;35.45
20628;BME280;10473;42.734;24.258;2022-10-23T13:20:21;92434.28;;;21.85;35.00
20628;BME280;10473;42.734;24.258;2022-10-23T13:22:59;92438.81;;;21.88;35.04
20628;BME280;10473;42.734;24.258;2022-10-23T13:25:29;92437.81;;;21.82;35.28
20628;BME280;10473;42.734;24.258;2022-10-23T13:28:21;92427.13;;;21.59;35.96